createdAt,value
2018-01-15T00:00:05.635Z,10.40
2018-01-15T00:01:07.158Z,9.70
2018-01-15T00:02:08.444Z,9.17
2018-01-15T00:03:09.689Z,8.70
2018-01-15T00:04:10.931Z,9.70
2018-01-15T00:05:12.166Z,9.60
2018-01-15T00:06:13.423Z,9.77
2018-01-15T00:07:14.672Z,9.20
2018-01-15T00:08:15.913Z,9.80
2018-01-15T00:09:17.161Z,9.67
2018-01-15T00:10:18.394Z,9.63
2018-01-15T00:11:19.935Z,10.23
2018-01-15T00:12:21.187Z,10.43
2018-01-15T00:13:23.170Z,10.07
2018-01-15T00:14:24.426Z,11.70
2018-01-15T00:15:25.688Z,10.67
2018-01-15T00:16:26.948Z,11.87
2018-01-15T00:17:28.955Z,10.80
2018-01-15T00:18:30.245Z,10.40
2018-01-15T00:19:31.468Z,10.00
2018-01-15T00:20:33.449Z,9.70
2018-01-15T00:21:35.049Z,10.40
2018-01-15T00:22:36.300Z,11.33
2018-01-15T00:23:38.301Z,11.47
2018-01-15T00:24:39.554Z,11.03
2018-01-15T00:25:40.812Z,10.87
2018-01-15T00:26:43.109Z,9.80
2018-01-15T00:27:44.361Z,10.50
2018-01-15T00:28:45.618Z,10.13
2018-01-15T00:29:47.595Z,10.33
2018-01-15T00:30:48.837Z,10.33
2018-01-15T00:31:51.189Z,11.57
2018-01-15T00:32:52.430Z,10.57
2018-01-15T00:33:54.435Z,9.97
2018-01-15T00:34:55.697Z,9.70
2018-01-15T00:35:56.966Z,9.57
2018-01-15T00:36:59.304Z,10.43
2018-01-15T00:38:00.568Z,9.37
2018-01-15T00:39:01.841Z,10.47
2018-01-15T00:40:03.090Z,9.63
2018-01-15T00:41:04.339Z,10.13
2018-01-15T00:42:05.899Z,9.97
2018-01-15T00:43:07.886Z,11.40
2018-01-15T00:44:09.171Z,11.63
2018-01-15T00:45:10.411Z,11.53
2018-01-15T00:46:11.657Z,11.20
2018-01-15T00:47:13.649Z,11.17
2018-01-15T00:48:14.884Z,10.70
2018-01-15T00:49:16.114Z,11.77
2018-01-15T00:50:17.363Z,10.23
2018-01-15T00:51:18.614Z,11.83
2018-01-15T00:52:20.195Z,10.90
2018-01-15T00:53:22.201Z,10.90
2018-01-15T00:54:23.498Z,11.87
2018-01-15T00:55:24.731Z,11.37
2018-01-15T00:56:26.719Z,11.27
2018-01-15T00:57:28.274Z,11.87
2018-01-15T00:58:29.540Z,11.33
2018-01-15T00:59:30.790Z,11.43
2018-01-15T01:00:32.848Z,11.77
2018-01-15T01:01:34.822Z,12.03
2018-01-15T01:02:36.339Z,12.10
2018-01-15T01:03:38.373Z,12.67
2018-01-15T01:04:39.618Z,11.07
2018-01-15T01:05:41.614Z,10.43
2018-01-15T01:06:42.851Z,11.77
2018-01-15T01:07:44.452Z,11.93
2018-01-15T01:08:46.427Z,10.60
2018-01-15T01:09:47.677Z,11.93
2018-01-15T01:10:48.922Z,10.23
2018-01-15T01:11:50.202Z,12.73
2018-01-15T01:12:51.469Z,11.77
2018-01-15T01:13:52.724Z,12.47
2018-01-15T01:14:53.967Z,12.20
2018-01-15T01:15:55.224Z,12.30
2018-01-15T01:16:56.488Z,11.20
2018-01-15T01:17:58.514Z,12.03
2018-01-15T01:18:59.790Z,12.00
2018-01-15T01:20:01.788Z,10.60
2018-01-15T01:21:03.034Z,11.03
2018-01-15T01:22:04.269Z,10.30
2018-01-15T01:23:05.537Z,11.10
2018-01-15T01:24:07.524Z,10.80
2018-01-15T01:25:08.789Z,10.60
2018-01-15T01:26:10.055Z,10.67
2018-01-15T01:27:11.299Z,10.17
2018-01-15T01:28:13.643Z,8.83
2018-01-15T01:29:14.895Z,9.90
2018-01-15T01:30:16.883Z,10.40
2018-01-15T01:31:18.124Z,9.40
2018-01-15T01:32:19.373Z,9.17
2018-01-15T01:33:20.889Z,9.10
2018-01-15T01:34:22.142Z,9.60
2018-01-15T01:35:23.397Z,11.23
2018-01-15T01:36:24.675Z,11.07
2018-01-15T01:37:26.667Z,10.93
2018-01-15T01:38:28.260Z,10.90
2018-01-15T01:39:30.286Z,10.90
2018-01-15T01:40:31.548Z,11.30
2018-01-15T01:41:33.550Z,11.10
2018-01-15T01:42:34.800Z,10.63
2018-01-15T01:43:36.375Z,10.17
2018-01-15T01:44:38.508Z,10.37
2018-01-15T01:45:40.530Z,10.73
2018-01-15T01:46:41.787Z,11.40
2018-01-15T01:47:43.062Z,10.40
2018-01-15T01:48:45.422Z,10.47
2018-01-15T01:49:47.424Z,9.83
2018-01-15T01:50:48.665Z,11.33
2018-01-15T01:51:49.929Z,10.63
2018-01-15T01:52:51.188Z,11.30
2018-01-15T01:53:53.531Z,11.83
2018-01-15T01:54:54.835Z,12.63
2018-01-15T01:55:56.078Z,12.60
2018-01-15T01:56:57.327Z,11.43
2018-01-15T01:57:58.564Z,10.50
2018-01-15T01:59:00.118Z,11.67
2018-01-15T02:00:01.370Z,12.20
2018-01-15T02:01:03.465Z,11.90
2018-01-15T02:02:04.707Z,12.10
2018-01-15T02:03:12.782Z,12.57
2018-01-15T02:04:14.329Z,13.27
2018-01-15T02:05:15.593Z,11.07
2018-01-15T02:06:16.843Z,12.60
2018-01-15T02:07:18.104Z,10.73
2018-01-15T02:08:20.093Z,10.23
2018-01-15T02:09:21.680Z,11.17
2018-01-15T02:10:22.912Z,10.80
2018-01-15T02:11:24.179Z,11.03
2018-01-15T02:12:25.436Z,11.00
2018-01-15T02:13:26.701Z,11.10
2018-01-15T02:14:28.269Z,12.30
2018-01-15T02:15:29.520Z,12.10
2018-01-15T02:16:31.506Z,11.57
2018-01-15T02:17:32.765Z,11.70
2018-01-15T02:18:34.032Z,10.80
2018-01-15T02:19:36.332Z,11.90
2018-01-15T02:20:37.580Z,10.97
2018-01-15T02:21:38.843Z,11.67
2018-01-15T02:22:40.100Z,12.07
2018-01-15T02:23:41.371Z,11.37
2018-01-15T02:24:42.964Z,12.03
2018-01-15T02:25:44.244Z,12.00
2018-01-15T02:26:45.544Z,12.77
2018-01-15T02:27:46.804Z,12.17
2018-01-15T02:28:48.056Z,13.03
2018-01-15T02:29:49.620Z,12.67
2018-01-15T02:30:50.872Z,13.90
2018-01-15T02:31:52.121Z,13.47
2018-01-15T02:32:54.157Z,14.00
2018-01-15T02:33:56.196Z,13.23
2018-01-15T02:34:57.782Z,12.67
2018-01-15T02:35:59.777Z,13.87
2018-01-15T02:37:01.018Z,13.90
2018-01-15T02:38:02.262Z,13.60
2018-01-15T02:39:04.292Z,13.50
2018-01-15T02:40:05.895Z,12.87
2018-01-15T02:41:07.961Z,13.40
2018-01-15T02:42:09.978Z,12.60
2018-01-15T02:43:11.228Z,12.30
2018-01-15T02:44:12.496Z,12.57
2018-01-15T02:45:14.820Z,12.80
2018-01-15T02:46:16.091Z,12.37
2018-01-15T02:47:18.085Z,12.03
2018-01-15T02:48:19.313Z,12.07
2018-01-15T02:49:20.574Z,11.40
2018-01-15T02:50:22.852Z,11.97
2018-01-15T02:51:24.096Z,11.87
2018-01-15T02:52:26.148Z,12.07
2018-01-15T02:53:28.163Z,12.30
2018-01-15T02:54:29.406Z,11.70
2018-01-15T02:55:30.976Z,12.70
2018-01-15T02:56:32.238Z,12.77
2018-01-15T02:57:33.528Z,12.90
2018-01-15T02:58:34.786Z,12.73
2018-01-15T02:59:36.802Z,13.57
2018-01-15T03:00:38.323Z,12.07
2018-01-15T03:01:39.590Z,12.20
2018-01-15T03:02:40.848Z,13.07
2018-01-15T03:03:42.101Z,11.57
2018-01-15T03:04:44.090Z,12.20
2018-01-15T03:05:45.623Z,10.43
2018-01-15T03:06:46.876Z,10.83
2018-01-15T03:07:48.144Z,11.30
2018-01-15T03:08:49.384Z,11.00
2018-01-15T03:09:50.654Z,11.23
2018-01-15T03:10:52.214Z,11.47
2018-01-15T03:11:53.454Z,11.77
2018-01-15T03:12:54.708Z,12.27
2018-01-15T03:13:55.960Z,12.70
2018-01-15T03:14:57.220Z,12.53
2018-01-15T03:15:59.508Z,11.87
2018-01-15T03:17:00.766Z,11.97
2018-01-15T03:18:02.025Z,12.37
2018-01-15T03:19:03.306Z,11.70
2018-01-15T03:20:04.588Z,11.23
2018-01-15T03:21:06.115Z,11.57
2018-01-15T03:22:07.364Z,11.10
2018-01-15T03:23:08.624Z,12.10
2018-01-15T03:24:10.614Z,10.80
2018-01-15T03:25:11.868Z,11.40
2018-01-15T03:26:13.432Z,11.47
2018-01-15T03:27:14.680Z,11.00
2018-01-15T03:28:15.934Z,11.70
2018-01-15T03:29:17.912Z,11.53
2018-01-15T03:30:19.190Z,11.90
2018-01-15T03:31:20.460Z,11.13
2018-01-15T03:32:22.434Z,12.13
2018-01-15T03:33:23.687Z,12.30
2018-01-15T03:34:24.948Z,12.07
2018-01-15T03:35:26.206Z,12.03
2018-01-15T03:36:28.480Z,11.50
2018-01-15T03:37:30.452Z,11.87
2018-01-15T03:38:31.696Z,11.77
2018-01-15T03:39:32.976Z,11.97
2018-01-15T03:40:34.232Z,13.03
2018-01-15T03:41:36.484Z,11.70
2018-01-15T03:42:38.512Z,12.23
2018-01-15T03:43:39.763Z,12.20
2018-01-15T03:44:41.022Z,12.03
2018-01-15T03:45:43.010Z,12.70
2018-01-15T03:46:44.596Z,12.43
2018-01-15T03:47:45.819Z,12.03
2018-01-15T03:48:47.060Z,11.60
2018-01-15T03:49:48.320Z,12.40
2018-01-15T03:50:50.300Z,11.70
2018-01-15T03:51:51.544Z,12.73
2018-01-15T03:52:52.783Z,12.27
2018-01-15T03:53:54.020Z,11.97
2018-01-15T03:54:55.266Z,12.40
2018-01-15T03:55:56.502Z,11.63
2018-01-15T03:56:58.089Z,10.73
2018-01-15T03:58:00.106Z,12.00
2018-01-15T03:59:01.362Z,11.30
2018-01-15T04:00:02.620Z,11.13
2018-01-15T04:01:04.598Z,11.77
2018-01-15T04:02:06.192Z,11.53
2018-01-15T04:03:07.445Z,12.10
2018-01-15T04:04:09.450Z,12.70
2018-01-15T04:05:10.734Z,12.57
2018-01-15T04:06:12.705Z,13.03
2018-01-15T04:07:13.963Z,15.13
2018-01-15T04:08:15.209Z,15.90
2018-01-15T04:09:17.213Z,17.37
2018-01-15T04:10:18.493Z,17.73
2018-01-15T04:11:20.483Z,18.97
2018-01-15T04:12:22.028Z,21.00
2018-01-15T04:13:24.025Z,19.87
2018-01-15T04:14:25.277Z,17.53
2018-01-15T04:15:26.523Z,16.43
2018-01-15T04:16:27.807Z,15.50
2018-01-15T04:17:29.071Z,17.43
2018-01-15T04:18:30.328Z,18.17
2018-01-15T04:19:31.583Z,18.30
2018-01-15T04:20:32.879Z,16.93
2018-01-15T04:21:34.130Z,16.07
2018-01-15T04:22:35.663Z,17.07
2018-01-15T04:23:36.914Z,17.07
2018-01-15T04:24:38.156Z,17.53
2018-01-15T04:25:39.413Z,14.20
2018-01-15T04:26:41.410Z,15.40
2018-01-15T04:27:43.006Z,14.83
2018-01-15T04:28:44.262Z,14.00
2018-01-15T04:29:49.466Z,14.13
2018-01-15T04:30:50.751Z,14.00
2018-01-15T04:31:51.997Z,12.63
2018-01-15T04:32:53.542Z,13.30
2018-01-15T04:33:54.812Z,13.47
2018-01-15T04:34:56.062Z,14.10
2018-01-15T04:35:58.084Z,12.97
2018-01-15T04:36:59.348Z,13.90
2018-01-15T04:38:01.370Z,13.90
2018-01-15T04:39:03.414Z,13.53
2018-01-15T04:40:04.681Z,13.77
2018-01-15T04:41:06.167Z,13.50
2018-01-15T04:42:07.448Z,14.47
2018-01-15T04:43:08.697Z,13.10
2018-01-15T04:44:09.935Z,14.07
2018-01-15T04:45:11.193Z,14.27
2018-01-15T04:46:12.447Z,15.23
2018-01-15T04:47:13.684Z,13.37
2018-01-15T04:48:15.211Z,13.60
2018-01-15T04:49:16.463Z,12.87
2018-01-15T04:50:17.779Z,13.53
2018-01-15T04:51:19.028Z,13.77
2018-01-15T04:52:20.269Z,13.87
2018-01-15T04:53:21.848Z,12.83
2018-01-15T04:54:23.129Z,12.87
2018-01-15T04:55:24.383Z,13.90
2018-01-15T04:56:25.639Z,13.73
2018-01-15T04:57:26.881Z,12.90
2018-01-15T04:58:28.409Z,13.13
2018-01-15T04:59:29.643Z,14.10
2018-01-15T05:00:30.893Z,13.17
2018-01-15T05:01:32.161Z,12.50
2018-01-15T05:02:34.195Z,12.57
2018-01-15T05:03:35.763Z,12.90
2018-01-15T05:04:37.750Z,13.47
2018-01-15T05:05:39.004Z,12.93
2018-01-15T05:06:40.247Z,12.93
2018-01-15T05:07:41.498Z,13.63
2018-01-15T05:08:43.031Z,13.07
2018-01-15T05:09:44.289Z,12.93
2018-01-15T05:10:46.259Z,12.67
2018-01-15T05:11:47.558Z,12.70
2018-01-15T05:12:48.785Z,12.50
2018-01-15T05:13:50.070Z,13.10
2018-01-15T05:14:51.310Z,12.23
2018-01-15T05:15:52.561Z,12.67
2018-01-15T05:16:53.849Z,13.23
2018-01-15T05:17:55.107Z,13.90
2018-01-15T05:18:57.445Z,12.63
2018-01-15T05:19:59.435Z,12.37
2018-01-15T05:21:00.698Z,13.03
2018-01-15T05:22:01.939Z,12.87
2018-01-15T05:23:03.199Z,13.20
2018-01-15T05:24:04.861Z,13.00
2018-01-15T05:25:06.875Z,13.20
2018-01-15T05:26:08.125Z,12.50
2018-01-15T05:27:09.377Z,14.10
2018-01-15T05:28:11.358Z,13.17
2018-01-15T05:29:12.627Z,13.77
2018-01-15T05:30:13.863Z,12.80
2018-01-15T05:31:15.157Z,13.93
2018-01-15T05:32:16.397Z,13.13
2018-01-15T05:33:17.650Z,12.77
2018-01-15T05:34:18.924Z,12.30
2018-01-15T05:35:20.196Z,13.67
2018-01-15T05:36:22.197Z,12.63
2018-01-15T05:37:23.441Z,13.27
2018-01-15T05:38:24.674Z,14.13
2018-01-15T05:39:25.953Z,12.33
2018-01-15T05:40:27.951Z,12.57
2018-01-15T05:41:29.210Z,13.03
2018-01-15T05:42:30.449Z,12.73
2018-01-15T05:43:31.701Z,13.17
2018-01-15T05:44:33.979Z,13.00
2018-01-15T05:45:35.246Z,12.63
2018-01-15T05:46:36.490Z,12.27
2018-01-15T05:47:37.728Z,13.13
2018-01-15T05:48:38.973Z,12.53
2018-01-15T05:49:40.229Z,12.97
2018-01-15T05:50:41.461Z,11.93
2018-01-15T05:51:42.699Z,12.40
2018-01-15T05:52:43.980Z,12.87
2018-01-15T05:53:45.217Z,12.87
2018-01-15T05:54:46.499Z,13.40
2018-01-15T05:55:47.754Z,14.10
2018-01-15T05:56:49.753Z,12.73
2018-01-15T05:57:51.062Z,13.83
2018-01-15T05:58:52.312Z,13.10
2018-01-15T05:59:53.585Z,13.33
2018-01-15T06:00:54.867Z,13.57
2018-01-15T06:01:56.124Z,13.17
2018-01-15T06:02:57.396Z,12.73
2018-01-15T06:03:58.632Z,12.87
2018-01-15T06:04:59.910Z,13.17
2018-01-15T06:06:01.172Z,13.60
2018-01-15T06:07:02.422Z,13.80
2018-01-15T06:08:03.657Z,13.33
2018-01-15T06:09:04.906Z,13.70
2018-01-15T06:10:06.168Z,13.00
2018-01-15T06:11:08.179Z,13.13
2018-01-15T06:12:09.466Z,13.67
2018-01-15T06:13:11.433Z,13.00
2018-01-15T06:14:12.673Z,12.93
2018-01-15T06:15:14.270Z,13.67
2018-01-15T06:16:15.504Z,13.13
2018-01-15T06:17:16.739Z,13.37
2018-01-15T06:18:17.982Z,14.57
2018-01-15T06:19:19.234Z,14.10
2018-01-15T06:20:21.508Z,13.43
2018-01-15T06:21:22.766Z,13.60
2018-01-15T06:22:24.000Z,14.77
2018-01-15T06:23:25.249Z,13.57
2018-01-15T06:24:26.502Z,14.13
2018-01-15T06:25:27.762Z,14.83
2018-01-15T06:26:29.738Z,14.00
2018-01-15T06:27:30.973Z,13.70
2018-01-15T06:28:32.230Z,13.03
2018-01-15T06:29:33.464Z,13.70
2018-01-15T06:30:34.986Z,13.83
2018-01-15T06:31:36.232Z,13.17
2018-01-15T06:32:37.470Z,13.33
2018-01-15T06:33:38.730Z,13.77
2018-01-15T06:34:39.993Z,14.60
2018-01-15T06:35:41.552Z,14.17
2018-01-15T06:36:43.524Z,15.27
2018-01-15T06:37:44.740Z,14.70
2018-01-15T06:38:46.738Z,13.27
2018-01-15T06:39:47.972Z,15.33
2018-01-15T06:40:49.508Z,14.13
2018-01-15T06:41:50.780Z,13.40
2018-01-15T06:42:52.044Z,15.77
2018-01-15T06:43:53.276Z,15.67
2018-01-15T06:44:55.269Z,13.30
2018-01-15T06:45:56.860Z,16.50
2018-01-15T06:46:58.849Z,14.47
2018-01-15T06:48:00.086Z,15.87
2018-01-15T06:49:01.336Z,15.40
2018-01-15T06:50:02.608Z,15.03
2018-01-15T06:51:04.874Z,14.40
2018-01-15T06:52:06.861Z,15.43
2018-01-15T06:53:08.118Z,12.87
2018-01-15T06:54:09.372Z,15.37
2018-01-15T06:55:10.625Z,13.67
2018-01-15T06:56:11.900Z,12.73
2018-01-15T06:57:13.136Z,12.50
2018-01-15T06:58:14.392Z,12.73
2018-01-15T06:59:15.661Z,13.87
2018-01-15T07:00:16.944Z,13.20
2018-01-15T07:01:18.544Z,13.50
2018-01-15T07:02:19.856Z,14.63
2018-01-15T07:03:21.172Z,12.60
2018-01-15T07:04:22.418Z,11.93
2018-01-15T07:05:23.684Z,13.17
2018-01-15T07:06:25.227Z,13.00
2018-01-15T07:07:26.489Z,12.90
2018-01-15T07:08:28.484Z,12.40
2018-01-15T07:09:29.744Z,13.40
2018-01-15T07:10:30.984Z,10.73
2018-01-15T07:11:32.544Z,11.87
2018-01-15T07:12:34.532Z,12.87
2018-01-15T07:13:35.788Z,11.93
2018-01-15T07:14:37.037Z,11.87
2018-01-15T07:15:38.356Z,11.80
2018-01-15T07:16:39.604Z,12.60
2018-01-15T07:17:40.844Z,12.97
2018-01-15T07:18:42.074Z,13.17
2018-01-15T07:19:43.322Z,13.97
2018-01-15T07:20:44.612Z,13.47
2018-01-15T07:21:46.632Z,12.90
2018-01-15T07:22:48.636Z,13.20
2018-01-15T07:23:49.865Z,14.20
2018-01-15T07:24:51.165Z,13.80
2018-01-15T07:25:53.196Z,13.83
2018-01-15T07:26:54.485Z,12.43
2018-01-15T07:27:55.737Z,11.77
2018-01-15T07:28:57.067Z,14.10
2018-01-15T07:29:58.334Z,13.67
2018-01-15T07:30:59.592Z,13.43
2018-01-15T07:32:01.581Z,13.57
2018-01-15T07:33:02.833Z,12.97
2018-01-15T07:34:04.085Z,13.00
2018-01-15T07:35:05.339Z,13.77
2018-01-15T07:36:06.596Z,13.17
2018-01-15T07:37:08.588Z,13.70
2018-01-15T07:38:16.909Z,12.33
2018-01-15T07:39:18.160Z,12.50
2018-01-15T07:40:19.426Z,13.63
2018-01-15T07:41:20.700Z,13.77
2018-01-15T07:42:21.970Z,13.43
2018-01-15T07:43:23.225Z,13.10
2018-01-15T07:44:25.209Z,12.20
2018-01-15T07:45:26.461Z,14.87
2018-01-15T07:46:27.729Z,13.93
2018-01-15T07:47:28.985Z,14.20
2018-01-15T07:48:31.005Z,14.27
2018-01-15T07:49:32.247Z,14.07
2018-01-15T07:50:33.490Z,15.23
2018-01-15T07:51:34.721Z,14.43
2018-01-15T07:52:35.981Z,14.17
2018-01-15T07:53:37.969Z,14.47
2018-01-15T07:54:39.221Z,13.67
2018-01-15T07:55:40.459Z,15.23
2018-01-15T07:56:41.705Z,14.87
2018-01-15T07:57:42.969Z,15.23
2018-01-15T07:58:44.221Z,14.67
2018-01-15T07:59:45.491Z,14.43
2018-01-15T08:00:46.757Z,14.53
2018-01-15T08:01:48.005Z,14.93
2018-01-15T08:02:50.017Z,15.20
2018-01-15T08:03:51.341Z,15.13
2018-01-15T08:04:52.597Z,15.63
2018-01-15T08:05:53.864Z,14.87
2018-01-15T08:06:55.864Z,15.50
2018-01-15T08:07:57.121Z,14.93
2018-01-15T08:08:58.361Z,14.63
2018-01-15T08:09:59.593Z,13.53
2018-01-15T08:11:00.845Z,14.80
2018-01-15T08:12:02.089Z,16.17
2018-01-15T08:13:03.345Z,13.93
2018-01-15T08:14:04.597Z,14.23
2018-01-15T08:15:05.845Z,14.90
2018-01-15T08:16:07.155Z,14.47
2018-01-15T08:17:09.127Z,15.13
2018-01-15T08:18:10.393Z,13.80
2018-01-15T08:19:11.637Z,14.10
2018-01-15T08:20:12.889Z,14.13
2018-01-15T08:21:14.125Z,14.50
2018-01-15T08:22:16.115Z,14.40
2018-01-15T08:23:17.701Z,14.33
2018-01-15T08:24:18.939Z,14.30
2018-01-15T08:25:20.976Z,13.80
2018-01-15T08:26:22.211Z,12.83
2018-01-15T08:27:23.504Z,12.63
2018-01-15T08:28:25.639Z,13.90
2018-01-15T08:29:27.615Z,14.40
2018-01-15T08:30:28.877Z,14.23
2018-01-15T08:31:30.188Z,14.00
2018-01-15T08:32:32.137Z,14.90
2018-01-15T08:33:33.397Z,14.83
2018-01-15T08:34:34.645Z,14.43
2018-01-15T08:35:35.869Z,14.53
2018-01-15T08:36:37.143Z,14.70
2018-01-15T08:37:38.410Z,14.77
2018-01-15T08:38:40.407Z,15.10
2018-01-15T08:39:41.645Z,14.37
2018-01-15T08:40:42.885Z,14.87
2018-01-15T08:41:44.149Z,14.13
2018-01-15T08:42:45.393Z,15.17
2018-01-15T08:43:47.397Z,14.33
2018-01-15T08:44:48.657Z,14.27
2018-01-15T08:45:49.903Z,15.43
2018-01-15T08:46:51.147Z,14.53
2018-01-15T08:47:53.113Z,14.70
2018-01-15T08:48:55.115Z,13.13
2018-01-15T08:49:56.367Z,14.93
2018-01-15T08:50:57.602Z,13.17
2018-01-15T08:51:58.859Z,13.83
2018-01-15T08:53:00.853Z,13.57
2018-01-15T08:54:02.125Z,13.50
2018-01-15T08:55:03.372Z,13.63
2018-01-15T08:56:05.343Z,13.43
2018-01-15T08:57:07.349Z,13.40
2018-01-15T08:58:08.613Z,15.07
2018-01-15T08:59:09.879Z,13.60
2018-01-15T09:00:11.139Z,14.07
2018-01-15T09:01:12.392Z,13.20
2018-01-15T09:02:13.663Z,13.37
2018-01-15T09:03:15.673Z,15.37
2018-01-15T09:04:17.069Z,13.07
2018-01-15T09:05:19.063Z,16.10
2018-01-15T09:06:20.313Z,13.93
2018-01-15T09:07:21.563Z,14.00
2018-01-15T09:08:22.815Z,13.60
2018-01-15T09:09:25.135Z,13.23
2018-01-15T09:10:26.371Z,12.80
2018-01-15T09:11:27.625Z,12.60
2018-01-15T09:12:29.633Z,12.63
2018-01-15T09:13:30.913Z,13.47
2018-01-15T09:14:32.183Z,13.93
2018-01-15T09:15:34.161Z,14.40
2018-01-15T09:16:35.410Z,13.70
2018-01-15T09:17:36.650Z,14.33
2018-01-15T09:18:37.905Z,13.67
2018-01-15T09:19:39.167Z,13.97
2018-01-15T09:20:41.145Z,13.27
2018-01-15T09:21:42.407Z,12.60
2018-01-15T09:22:43.691Z,13.43
2018-01-15T09:23:44.919Z,12.63
2018-01-15T09:24:46.937Z,12.47
2018-01-15T09:25:48.218Z,12.73
2018-01-15T09:26:50.219Z,13.60
2018-01-15T09:27:51.493Z,12.77
2018-01-15T09:28:53.493Z,11.80
2018-01-15T09:29:54.753Z,12.20
2018-01-15T09:31:02.931Z,11.77
2018-01-15T09:32:04.173Z,12.40
2018-01-15T09:33:05.456Z,11.77
2018-01-15T09:34:07.477Z,11.57
2018-01-15T09:35:08.772Z,13.00
2018-01-15T09:36:10.030Z,13.93
2018-01-15T09:37:11.279Z,13.63
2018-01-15T09:38:12.520Z,11.47
2018-01-15T09:39:13.772Z,10.57
2018-01-15T09:40:15.285Z,9.93
2018-01-15T09:41:16.557Z,10.43
2018-01-15T09:42:17.829Z,9.43
2018-01-15T09:43:19.142Z,9.70
2018-01-15T09:44:20.355Z,9.67
2018-01-15T09:45:21.645Z,10.50
2018-01-15T09:46:22.897Z,9.70
2018-01-15T09:47:24.163Z,10.43
2018-01-15T09:48:25.445Z,10.80
2018-01-15T09:49:26.675Z,12.60
2018-01-15T09:50:27.957Z,14.47
2018-01-15T09:51:29.205Z,15.93
2018-01-15T09:52:30.477Z,15.10
2018-01-15T09:53:31.738Z,14.97
2018-01-15T09:54:32.988Z,14.13
2018-01-15T09:55:34.292Z,17.10
2018-01-15T09:56:35.535Z,19.17
2018-01-15T09:57:36.797Z,15.57
2018-01-15T09:58:38.045Z,14.67
2018-01-15T09:59:39.337Z,14.43
2018-01-15T10:00:40.860Z,18.67
2018-01-15T10:01:42.892Z,19.13
2018-01-15T10:02:44.141Z,18.23
2018-01-15T10:03:46.124Z,19.87
2018-01-15T10:04:47.433Z,19.97
2018-01-15T10:05:49.780Z,18.10
2018-01-15T10:06:51.044Z,18.93
2018-01-15T10:07:52.320Z,18.60
2018-01-15T10:08:53.553Z,20.40
2018-01-15T10:09:54.809Z,19.17
2018-01-15T10:10:56.368Z,19.27
2018-01-15T10:11:58.386Z,19.27
2018-01-15T10:12:59.641Z,19.30
2018-01-15T10:14:00.885Z,18.07
2018-01-15T10:15:02.144Z,17.63
2018-01-15T10:16:03.724Z,20.33
2018-01-15T10:17:04.980Z,17.90
2018-01-15T10:18:06.256Z,18.70
2018-01-15T10:19:08.244Z,17.60
2018-01-15T10:20:09.489Z,17.50
2018-01-15T10:21:11.056Z,19.40
2018-01-15T10:22:12.315Z,18.27
2018-01-15T10:23:14.305Z,17.83
2018-01-15T10:24:15.556Z,17.87
2018-01-15T10:25:16.792Z,18.73
2018-01-15T10:26:18.056Z,16.60
2018-01-15T10:27:19.325Z,15.03
2018-01-15T10:28:20.588Z,14.90
2018-01-15T10:29:21.856Z,16.60
2018-01-15T10:30:23.100Z,17.80
2018-01-15T10:31:25.108Z,16.00
2018-01-15T10:32:26.352Z,15.77
2018-01-15T10:33:27.612Z,14.43
2018-01-15T10:34:28.852Z,12.10
2018-01-15T10:35:30.104Z,11.17
2018-01-15T10:36:32.118Z,11.73
2018-01-15T10:37:33.397Z,13.90
2018-01-15T10:38:35.385Z,12.67
2018-01-15T10:39:36.636Z,9.27
2018-01-15T10:40:37.939Z,9.40
2018-01-15T10:41:39.346Z,8.87
2018-01-15T10:42:40.588Z,9.27
2018-01-15T10:43:42.606Z,7.87
2018-01-15T10:44:43.854Z,7.73
2018-01-15T10:45:45.100Z,8.47
2018-01-15T10:46:46.366Z,8.50
2018-01-15T10:47:47.620Z,8.00
2018-01-15T10:48:48.876Z,9.77
2018-01-15T10:49:50.110Z,9.33
2018-01-15T10:50:51.366Z,8.70
2018-01-15T10:51:52.934Z,8.50
2018-01-15T10:52:54.901Z,8.47
2018-01-15T10:53:56.972Z,8.77
2018-01-15T10:54:58.232Z,9.47
2018-01-15T10:55:59.480Z,10.73
2018-01-15T10:57:00.746Z,10.07
2018-01-15T10:58:02.760Z,8.80
2018-01-15T10:59:04.006Z,8.80
2018-01-15T11:00:05.278Z,8.57
2018-01-15T11:01:12.752Z,8.30
2018-01-15T11:02:15.036Z,7.93
2018-01-15T11:03:16.296Z,8.87
2018-01-15T11:04:17.540Z,8.60
2018-01-15T11:05:18.794Z,8.27
2018-01-15T11:06:20.049Z,8.43
2018-01-15T11:07:22.342Z,8.90
2018-01-15T11:08:23.600Z,10.60
2018-01-15T11:09:24.869Z,9.23
2018-01-15T11:10:26.132Z,9.07
2018-01-15T11:11:28.140Z,8.87
2018-01-15T11:12:29.416Z,11.63
2018-01-15T11:13:31.394Z,10.10
2018-01-15T11:14:32.652Z,10.70
2018-01-15T11:15:33.897Z,10.40
2018-01-15T11:16:35.141Z,10.60
2018-01-15T11:17:36.400Z,11.90
2018-01-15T11:18:38.392Z,11.33
2018-01-15T11:19:39.629Z,10.80
2018-01-15T11:20:40.892Z,8.60
2018-01-15T11:21:42.153Z,8.60
2018-01-15T11:22:43.418Z,7.57
2018-01-15T11:23:44.644Z,7.43
2018-01-15T11:24:45.900Z,8.40
2018-01-15T11:25:47.200Z,11.77
2018-01-15T11:26:49.184Z,10.13
2018-01-15T11:27:50.444Z,10.60
2018-01-15T11:28:51.664Z,10.77
2018-01-15T11:29:52.922Z,9.60
2018-01-15T11:30:54.943Z,13.30
2018-01-15T11:31:56.185Z,17.13
2018-01-15T11:32:57.780Z,15.83
2018-01-15T11:33:59.020Z,16.97
2018-01-15T11:35:00.272Z,16.90
2018-01-15T11:36:02.291Z,17.10
2018-01-15T11:37:03.553Z,18.07
2018-01-15T11:38:05.192Z,17.63
2018-01-15T11:39:07.184Z,18.40
2018-01-15T11:40:08.432Z,16.80
2018-01-15T11:41:09.696Z,17.77
2018-01-15T11:42:10.928Z,20.33
2018-01-15T11:43:12.178Z,20.00
2018-01-15T11:44:13.408Z,18.33
2018-01-15T11:45:14.652Z,16.00
2018-01-15T11:46:15.912Z,17.93
2018-01-15T11:47:17.176Z,18.20
2018-01-15T11:48:18.462Z,16.60
2018-01-15T11:49:20.474Z,19.00
2018-01-15T11:50:21.729Z,16.77
2018-01-15T11:51:22.994Z,17.77
2018-01-15T11:52:24.964Z,18.40
2018-01-15T11:53:26.213Z,18.50
2018-01-15T11:54:27.456Z,17.70
2018-01-15T11:55:28.707Z,18.83
2018-01-15T11:56:29.972Z,19.70
2018-01-15T11:57:31.208Z,18.23
2018-01-15T11:58:32.474Z,18.80
2018-01-15T11:59:33.752Z,19.20
2018-01-15T12:00:34.996Z,17.70
2018-01-15T12:01:36.248Z,17.80
2018-01-15T12:02:37.496Z,17.60
2018-01-15T12:03:39.510Z,18.67
2018-01-15T12:04:40.758Z,17.97
2018-01-15T12:05:41.993Z,17.97
2018-01-15T12:06:43.252Z,17.17
2018-01-15T12:07:45.256Z,18.30
2018-01-15T12:08:46.768Z,18.57
2018-01-15T12:09:48.019Z,18.33
2018-01-15T12:10:49.272Z,18.13
2018-01-15T12:11:50.524Z,15.63
2018-01-15T12:12:51.776Z,15.73
2018-01-15T12:13:53.035Z,17.73
2018-01-15T12:14:55.064Z,18.03
2018-01-15T12:15:56.300Z,17.70
2018-01-15T12:16:57.540Z,17.63
2018-01-15T12:17:58.780Z,17.07
2018-01-15T12:19:00.776Z,15.87
2018-01-15T12:20:02.086Z,14.73
2018-01-15T12:21:04.137Z,14.70
2018-01-15T12:22:05.386Z,15.30
2018-01-15T12:23:06.640Z,16.47
2018-01-15T12:24:08.204Z,15.77
2018-01-15T12:25:09.448Z,14.60
2018-01-15T12:26:10.710Z,16.63
2018-01-15T12:27:12.705Z,13.47
2018-01-15T12:28:13.961Z,11.27
2018-01-15T12:29:15.258Z,10.17
2018-01-15T12:30:16.506Z,12.13
2018-01-15T12:31:17.770Z,10.70
2018-01-15T12:32:19.020Z,13.50
2018-01-15T12:33:20.272Z,13.20
2018-01-15T12:34:22.272Z,11.97
2018-01-15T12:35:23.528Z,11.43
2018-01-15T12:36:24.778Z,10.33
2018-01-15T12:37:26.025Z,9.40
2018-01-15T12:38:27.277Z,8.13
2018-01-15T12:39:29.295Z,7.43
2018-01-15T12:40:30.526Z,8.57
2018-01-15T12:41:31.824Z,7.47
2018-01-15T12:42:33.074Z,8.67
2018-01-15T12:43:34.336Z,8.57
2018-01-15T12:44:35.614Z,8.00
2018-01-15T12:45:36.897Z,7.30
2018-01-15T12:46:38.177Z,8.10
2018-01-15T12:47:40.152Z,7.60
2018-01-15T12:48:41.422Z,6.53
2018-01-15T12:49:42.684Z,8.37
2018-01-15T12:50:44.682Z,7.27
2018-01-15T12:51:45.916Z,8.10
2018-01-15T12:52:47.161Z,6.63
2018-01-15T12:53:48.413Z,7.40
2018-01-15T12:54:49.684Z,7.40
2018-01-15T12:55:50.924Z,6.53
2018-01-15T12:58:07.548Z,7.90
2018-01-15T12:59:08.808Z,7.67
2018-01-15T13:00:10.368Z,7.03
2018-01-15T13:01:11.608Z,8.17
2018-01-15T13:02:12.855Z,7.13
2018-01-15T13:03:14.120Z,8.27
2018-01-15T13:04:16.105Z,6.97
2018-01-15T13:05:17.392Z,8.00
2018-01-15T13:06:18.692Z,7.20
2018-01-15T13:07:32.288Z,6.90
2018-01-15T13:08:48.452Z,7.70
2018-01-15T13:09:50.434Z,7.37
2018-01-15T13:10:51.965Z,7.37
2018-01-15T13:11:53.212Z,7.07
2018-01-15T13:12:54.457Z,7.50
2018-01-15T13:13:55.725Z,7.50
2018-01-15T13:14:56.969Z,6.70
2018-01-15T13:15:58.229Z,6.53
2018-01-15T13:17:00.255Z,6.87